Time;durP1;ratioP1;P1;durP2;ratioP2;P2;SDS_P1;SDS_P2;PMS_P1;PMS_P2;Temp;Humidity;BMP_temperature;BMP_pressure;BME280_temperature;BME280_humidity;BME280_pressure;Samples;Min_cycle;Max_cycle;Signal;HPM_P1;HPM_P2
2022/09/18 00:00:20;;;;;;;4.90;3.63;;;;;;;24.26;49.41;93787.38;6170025;28;103623;-78
2022/09/18 00:03:23;;;;;;;4.83;4.43;;;;;;;24.26;49.25;93779.34;6168075;28;103229;-79
2022/09/18 00:06:29;;;;;;;4.43;4.00;;;;;;;24.25;49.22;93785.06;6166395;28;106588;-79
2022/09/18 00:09:33;;;;;;;4.60;4.20;;;;;;;24.23;49.80;93792.66;6161237;28;105251;-79
2022/09/18 00:12:36;;;;;;;4.80;3.17;;;;;;;24.22;49.21;93797.22;6168817;28;102742;-78
2022/09/18 00:15:41;;;;;;;3.07;2.77;;;;;;;24.13;49.27;93805.41;6165796;28;104054;-77
2022/09/18 00:18:44;;;;;;;3.63;3.00;;;;;;;24.10;48.99;93822.16;6165513;28;103916;-77
2022/09/18 00:21:49;;;;;;;4.73;2.47;;;;;;;24.09;48.99;93825.19;6159236;28;103559;-77
2022/09/18 00:24:53;;;;;;;3.77;2.20;;;;;;;24.04;48.96;93846.84;6164930;28;104015;-77
2022/09/18 00:27:56;;;;;;;3.40;2.50;;;;;;;24.09;49.26;93857.25;6166899;28;103660;-78
2022/09/18 00:31:05;;;;;;;3.40;3.00;;;;;;;24.11;48.73;93873.72;6164429;28;104452;-78
2022/09/18 00:34:13;;;;;;;4.93;2.33;;;;;;;24.11;49.02;93901.22;6167433;28;102908;-79
2022/09/18 00:37:16;;;;;;;3.63;1.80;;;;;;;24.12;48.55;93900.09;6171631;28;104930;-79
2022/09/18 00:40:19;;;;;;;4.23;1.93;;;;;;;24.13;47.99;93914.22;6171257;28;103424;-78
2022/09/18 00:43:24;;;;;;;5.70;2.10;;;;;;;24.10;47.32;93913.03;6163933;28;103604;-78
2022/09/18 00:46:32;;;;;;;3.13;1.60;;;;;;;24.11;46.54;93911.91;6167991;28;103051;-77
2022/09/18 00:49:38;;;;;;;2.47;1.53;;;;;;;24.08;46.40;93925.19;6167713;28;103572;-77
2022/09/18 00:52:48;;;;;;;3.30;1.20;;;;;;;24.07;46.17;93948.47;6168124;28;103526;-77
2022/09/18 00:55:51;;;;;;;0.90;0.90;;;;;;;23.99;45.51;93964.63;6160760;28;103003;-77
2022/09/18 00:58:55;;;;;;;1.13;0.80;;;;;;;24.03;44.57;93984.25;6170006;28;102642;-78
2022/09/18 01:02:00;;;;;;;5.70;1.30;;;;;;;24.01;44.74;94007.84;6170335;28;103371;-78
2022/09/18 01:05:04;;;;;;;0.90;0.60;;;;;;;23.96;43.76;94003.50;6166040;28;103132;-79
2022/09/18 01:08:21;;;;;;;2.00;0.60;;;;;;;23.99;43.79;94013.50;6169893;28;105046;-77
2022/09/18 01:11:36;;;;;;;1.37;0.63;;;;;;;23.98;43.85;94032.56;6146458;28;103197;-78
2022/09/18 01:14:44;;;;;;;1.33;0.70;;;;;;;23.94;43.64;94050.41;6172780;28;104246;-78
2022/09/18 01:17:56;;;;;;;1.17;0.73;;;;;;;23.88;43.06;94053.34;6167759;28;106489;-78
2022/09/18 01:21:09;;;;;;;3.13;0.70;;;;;;;23.89;42.56;94054.88;6171138;28;103176;-78
2022/09/18 01:24:34;;;;;;;6.00;0.50;;;;;;;23.85;42.44;94047.88;6169420;28;104492;-77
2022/09/18 01:27:46;;;;;;;0.60;0.50;;;;;;;23.84;41.98;94065.03;6162586;28;103424;-77
2022/09/18 01:30:54;;;;;;;0.50;0.50;;;;;;;23.81;41.89;94063.81;6141001;28;104066;-77
2022/09/18 01:34:07;;;;;;;1.60;0.43;;;;;;;23.80;41.84;94080.97;6147844;28;106014;-77
2022/09/18 01:37:15;;;;;;;0.40;0.27;;;;;;;23.72;41.79;94076.56;6166512;28;105200;-76
2022/09/18 01:40:24;;;;;;;0.63;0.40;;;;;;;23.81;41.65;94085.19;6160011;28;103908;-76
2022/09/18 01:43:31;;;;;;;0.50;0.30;;;;;;;23.77;41.57;94103.03;6165889;28;103212;-77
2022/09/18 01:46:39;;;;;;;0.60;0.30;;;;;;;23.77;41.15;94088.88;6165168;28;103223;-77
2022/09/18 01:49:46;;;;;;;0.40;0.30;;;;;;;23.70;40.76;94118.09;6165549;28;103363;-79
2022/09/18 01:52:59;;;;;;;0.50;0.20;;;;;;;23.71;40.90;94139.13;6161280;28;103391;-77
2022/09/18 01:56:07;;;;;;;0.60;0.20;;;;;;;23.71;40.89;94138.34;6165885;28;104353;-77
2022/09/18 01:59:16;;;;;;;1.37;0.30;;;;;;;23.70;40.29;94142.91;6165366;28;104143;-76
2022/09/18 02:02:23;;;;;;;2.40;0.30;;;;;;;23.67;40.61;94145.44;6159856;28;104128;-77
2022/09/18 02:05:29;;;;;;;0.60;0.30;;;;;;;23.72;40.62;94151.34;6166386;28;102801;-77
2022/09/18 02:08:38;;;;;;;1.10;0.27;;;;;;;23.67;40.40;94150.78;6165908;28;102893;-76
2022/09/18 02:11:46;;;;;;;0.53;0.30;;;;;;;23.56;40.13;94167.28;6166337;28;103175;-76
2022/09/18 02:14:56;;;;;;;0.50;0.30;;;;;;;23.56;40.24;94172.63;6159159;28;105236;-76
2022/09/18 02:18:02;;;;;;;0.50;0.20;;;;;;;23.57;40.08;94205.47;6141848;28;103054;-76
2022/09/18 02:21:12;;;;;;;0.40;0.30;;;;;;;23.55;40.05;94213.03;6141743;28;103372;-76
2022/09/18 02:24:19;;;;;;;0.30;0.20;;;;;;;23.54;40.05;94214.16;6152359;28;103189;-76
2022/09/18 02:27:25;;;;;;;0.70;0.30;;;;;;;23.52;39.77;94209.16;6161535;28;103077;-77
2022/09/18 02:30:30;;;;;;;0.40;0.20;;;;;;;23.46;39.90;94221.16;6164479;28;103231;-78
2022/09/18 02:33:35;;;;;;;0.97;0.20;;;;;;;23.51;39.81;94234.25;6165149;28;103162;-77
2022/09/18 02:36:52;;;;;;;0.73;0.20;;;;;;;23.47;39.63;94264.66;6159464;28;104051;-76
2022/09/18 02:40:09;;;;;;;0.47;0.20;;;;;;;23.47;39.76;94261.97;6166099;28;106474;-76
2022/09/18 02:43:27;;;;;;;0.30;0.20;;;;;;;23.44;39.59;94281.34;6166060;28;105375;-76
2022/09/18 02:46:39;;;;;;;0.50;0.30;;;;;;;23.43;39.35;94275.22;6165926;28;105363;-77
2022/09/18 02:49:51;;;;;;;0.30;0.20;;;;;;;23.37;39.49;94265.88;6162820;28;104608;-76
2022/09/18 02:53:03;;;;;;;0.40;0.20;;;;;;;23.38;39.53;94282.69;6166694;28;103964;-76
2022/09/18 02:56:11;;;;;;;0.40;0.20;;;;;;;23.41;39.52;94304.16;6165483;28;103409;-76
2022/09/18 02:59:33;;;;;;;0.40;0.20;;;;;;;23.40;39.43;94291.91;6152213;28;103867;-76
2022/09/18 03:02:41;;;;;;;0.40;0.40;;;;;;;23.37;39.00;94308.59;6140159;28;106488;-76
2022/09/18 03:05:51;;;;;;;0.40;0.30;;;;;;;23.35;39.04;94315.34;6142186;28;103835;-76
2022/09/18 03:08:55;;;;;;;0.90;0.70;;;;;;;23.28;38.97;94332.69;6160554;28;102947;-76
2022/09/18 03:12:03;;;;;;;0.37;0.30;;;;;;;23.29;38.89;94322.81;6158831;28;104394;-76
2022/09/18 03:15:09;;;;;;;0.40;0.30;;;;;;;23.28;38.64;94308.66;6165027;28;102986;-75
2022/09/18 03:18:20;;;;;;;0.87;0.40;;;;;;;23.24;38.76;94321.09;6164687;28;103683;-77
2022/09/18 03:21:24;;;;;;;0.50;0.50;;;;;;;23.23;38.83;94335.56;6160214;28;106297;-74
2022/09/18 03:24:30;;;;;;;0.40;0.40;;;;;;;23.27;38.60;94335.69;6164370;28;104955;-77
2022/09/18 03:27:33;;;;;;;0.60;0.50;;;;;;;23.24;38.06;94352.38;6164344;28;102811;-77
2022/09/18 03:30:36;;;;;;;0.70;0.50;;;;;;;23.20;38.12;94344.25;6163961;28;103437;-77
2022/09/18 03:33:41;;;;;;;3.20;0.70;;;;;;;23.19;38.17;94334.66;6156316;28;105424;-79
2022/09/18 03:36:45;;;;;;;0.50;0.50;;;;;;;23.19;37.95;94340.00;6163736;28;103065;-76
2022/09/18 03:39:48;;;;;;;1.10;0.60;;;;;;;23.17;37.74;94339.53;6163616;28;103520;-76
2022/09/18 03:42:52;;;;;;;0.80;0.60;;;;;;;23.12;37.45;94345.09;6163602;28;103604;-77
2022/09/18 03:45:55;;;;;;;0.80;0.67;;;;;;;23.16;37.78;94351.31;6156665;28;104385;-78
2022/09/18 03:49:00;;;;;;;1.63;0.57;;;;;;;23.14;37.86;94350.09;6163809;28;106336;-77
2022/09/18 03:52:03;;;;;;;0.70;0.70;;;;;;;23.08;37.40;94351.41;6163600;28;104620;-77
2022/09/18 03:55:07;;;;;;;0.80;0.80;;;;;;;23.09;37.35;94367.09;6160689;28;103218;-77
2022/09/18 03:58:11;;;;;;;1.20;0.60;;;;;;;23.08;37.54;94383.44;6160942;28;104196;-77
2022/09/18 04:01:15;;;;;;;1.87;0.70;;;;;;;23.12;37.52;94393.13;6162994;28;102997;-78
2022/09/18 04:04:20;;;;;;;1.47;0.80;;;;;;;23.14;38.03;94414.94;6163315;28;103336;-77
2022/09/18 04:07:23;;;;;;;0.63;0.63;;;;;;;23.14;37.55;94414.94;6156837;28;103378;-76
2022/09/18 04:10:26;;;;;;;0.80;0.70;;;;;;;23.12;37.79;94413.69;6168055;28;106466;-76
2022/09/18 04:13:30;;;;;;;1.40;1.00;;;;;;;23.12;38.07;94414.47;6167370;28;103666;-75
2022/09/18 04:16:33;;;;;;;1.10;1.00;;;;;;;23.15;38.29;94413.81;6167942;28;105025;-76
2022/09/18 04:19:38;;;;;;;1.17;1.07;;;;;;;23.08;38.08;94424.25;6161966;28;103253;-76
2022/09/18 04:22:41;;;;;;;1.33;1.03;;;;;;;23.17;37.84;94438.28;6167292;28;104425;-79
2022/09/18 04:25:44;;;;;;;1.50;1.17;;;;;;;23.17;37.75;94469.53;6167856;28;103378;-75
2022/09/18 04:28:47;;;;;;;6.50;1.10;;;;;;;23.18;37.96;94471.88;6166012;28;103288;-76
2022/09/18 04:31:51;;;;;;;2.93;1.27;;;;;;;23.16;38.22;94479.44;6163722;28;105267;-76
2022/09/18 04:34:56;;;;;;;1.17;1.07;;;;;;;23.14;38.39;94484.31;6166221;28;105264;-77
2022/09/18 04:37:59;;;;;;;1.40;1.23;;;;;;;23.15;37.74;94485.88;6167690;28;103308;-77
2022/09/18 04:41:02;;;;;;;2.30;1.17;;;;;;;23.10;38.32;94496.78;6162049;28;104432;-77
2022/09/18 04:44:06;;;;;;;1.47;1.37;;;;;;;23.13;38.13;94495.34;6167116;28;104955;-77
2022/09/18 04:47:09;;;;;;;1.97;1.87;;;;;;;23.12;37.33;94505.22;6166604;28;103994;-77
2022/09/18 04:50:14;;;;;;;1.47;1.37;;;;;;;23.15;37.26;94517.91;6166503;28;103095;-77
2022/09/18 04:53:18;;;;;;;2.23;1.60;;;;;;;23.17;37.93;94521.03;6155583;28;104209;-77
2022/09/18 04:56:21;;;;;;;2.03;1.80;;;;;;;23.16;37.52;94535.50;6166689;28;104417;-78
2022/09/18 04:59:24;;;;;;;2.13;1.77;;;;;;;23.16;37.66;94535.50;6159196;28;103297;-77
2022/09/18 05:02:27;;;;;;;1.80;1.10;;;;;;;23.04;37.50;94554.13;6161290;28;103212;-77
2022/09/18 05:05:32;;;;;;;2.73;2.00;;;;;;;22.99;37.29;94554.28;6161589;28;103049;-77
2022/09/18 05:08:36;;;;;;;3.67;1.87;;;;;;;22.93;38.03;94574.25;6166857;28;103078;-77
2022/09/18 05:11:39;;;;;;;2.93;1.70;;;;;;;23.00;37.45;94583.31;6166668;28;102912;-77
2022/09/18 05:14:42;;;;;;;6.87;2.30;;;;;;;22.97;36.94;94577.84;6163563;28;106046;-77
2022/09/18 05:17:46;;;;;;;4.90;2.07;;;;;;;22.86;37.21;94584.66;6162794;28;103620;-74
2022/09/18 05:20:50;;;;;;;3.37;1.60;;;;;;;22.95;37.38;94593.41;6165566;28;105602;-74
2022/09/18 05:23:53;;;;;;;1.53;1.43;;;;;;;22.99;37.14;94597.75;6166430;28;104405;-73
2022/09/18 05:26:56;;;;;;;2.80;1.33;;;;;;;23.01;37.19;94616.13;6159633;28;104950;-73
2022/09/18 05:29:59;;;;;;;5.37;2.20;;;;;;;22.97;37.20;94620.53;6167349;28;103990;-75
2022/09/18 05:33:06;;;;;;;4.67;1.77;;;;;;;23.00;37.70;94622.56;6167776;28;103807;-75
2022/09/18 05:36:10;;;;;;;2.67;1.80;;;;;;;22.87;36.91;94608.38;6166990;28;105452;-72
2022/09/18 05:39:13;;;;;;;4.40;1.70;;;;;;;22.92;37.97;94618.84;6160105;28;103923;-74
2022/09/18 05:42:20;;;;;;;4.97;2.00;;;;;;;23.11;38.61;94620.31;6167503;28;103214;-73
2022/09/18 05:45:23;;;;;;;3.80;1.87;;;;;;;23.27;38.37;94619.44;6165785;28;103016;-75
2022/09/18 05:48:27;;;;;;;5.00;1.77;;;;;;;23.52;41.41;94630.31;6164433;28;103702;-75
2022/09/18 05:51:31;;;;;;;5.50;2.50;;;;;;;23.53;40.55;94642.56;6164255;28;106778;-76
2022/09/18 05:54:35;;;;;;;4.33;2.73;;;;;;;23.46;40.93;94648.41;6167479;28;107076;-74
2022/09/18 05:57:38;;;;;;;5.40;2.43;;;;;;;23.28;39.87;94645.03;6185171;28;107193;-76
2022/09/18 06:00:43;;;;;;;3.37;2.13;;;;;;;23.15;39.06;94630.03;6161446;28;103039;-78
2022/09/18 06:03:49;;;;;;;3.50;1.80;;;;;;;23.15;39.08;94643.38;6166940;28;102999;-76
2022/09/18 06:06:54;;;;;;;4.53;2.33;;;;;;;23.11;39.40;94633.66;6166104;28;103497;-75
2022/09/18 06:09:58;;;;;;;2.83;2.10;;;;;;;23.16;39.22;94626.25;6166716;28;103092;-76
2022/09/18 06:13:02;;;;;;;3.00;2.00;;;;;;;23.21;38.98;94634.09;6160591;28;102862;-78
2022/09/18 06:16:05;;;;;;;4.27;2.07;;;;;;;23.21;39.32;94642.09;6166998;28;103720;-77
2022/09/18 06:19:08;;;;;;;2.70;2.10;;;;;;;23.24;39.46;94651.34;6166956;28;106204;-80
2022/09/18 06:22:13;;;;;;;3.20;2.17;;;;;;;23.14;39.54;94638.34;6166132;28;104436;-78
2022/09/18 06:25:20;;;;;;;2.10;1.87;;;;;;;23.08;39.60;94671.69;6164482;28;103177;-77
2022/09/18 06:28:26;;;;;;;2.87;2.63;;;;;;;23.01;39.10;94664.94;6169099;28;103727;-80
2022/09/18 06:31:30;;;;;;;3.33;2.43;;;;;;;22.84;39.32;94667.66;6166523;28;106669;-80
2022/09/18 06:34:33;;;;;;;2.77;2.03;;;;;;;22.84;38.42;94674.91;6159685;28;103185;-79
2022/09/18 06:37:42;;;;;;;1.77;1.50;;;;;;;22.85;38.43;94689.78;6165152;28;104391;-77
2022/09/18 06:40:49;;;;;;;2.00;1.80;;;;;;;22.84;39.06;94693.56;6166437;28;105286;-81
2022/09/18 06:43:52;;;;;;;2.70;2.50;;;;;;;22.73;39.20;94689.69;6167304;28;102729;-79
2022/09/18 06:46:56;;;;;;;3.83;1.73;;;;;;;22.88;38.69;94694.53;6159535;28;103498;-81
2022/09/18 06:49:59;;;;;;;3.00;2.20;;;;;;;22.78;38.83;94689.53;6169436;28;104233;-85
2022/09/18 06:53:06;;;;;;;2.90;2.60;;;;;;;22.67;39.49;94697.84;6170681;28;103469;-83
2022/09/18 06:56:17;;;;;;;6.93;3.77;;;;;;;22.93;40.54;94708.47;6164037;28;103300;-80
2022/09/18 06:59:23;;;;;;;3.27;3.07;;;;;;;23.02;39.99;94713.78;6163114;28;103116;-78
2022/09/18 07:02:27;;;;;;;4.20;3.07;;;;;;;23.00;39.29;94700.72;6164742;28;104101;-77
2022/09/18 07:05:32;;;;;;;3.57;2.63;;;;;;;23.07;39.46;94721.59;6165095;28;103008;-78
2022/09/18 07:08:37;;;;;;;2.50;2.30;;;;;;;23.06;39.50;94728.06;6157406;28;103376;-78
2022/09/18 07:11:40;;;;;;;2.20;2.00;;;;;;;23.02;39.35;94729.81;6164904;28;107072;-80
2022/09/18 07:14:43;;;;;;;2.20;1.47;;;;;;;22.85;38.54;94703.94;6165033;28;103296;-78
2022/09/18 07:17:46;;;;;;;1.93;1.77;;;;;;;22.93;39.05;94726.34;6165003;28;104053;-80
2022/09/18 07:20:50;;;;;;;2.20;1.60;;;;;;;22.95;38.80;94724.16;6157854;28;103827;-78
2022/09/18 07:23:54;;;;;;;2.30;1.43;;;;;;;22.94;39.20;94722.59;6163655;28;104044;-76
2022/09/18 07:26:58;;;;;;;5.20;2.07;;;;;;;22.96;39.01;94725.72;6164073;28;103849;-77
2022/09/18 07:30:01;;;;;;;7.87;1.40;;;;;;;23.00;38.59;94726.63;6151260;28;104547;-78
2022/09/18 07:33:06;;;;;;;1.73;1.20;;;;;;;23.10;38.46;94717.50;6154386;28;103261;-78
2022/09/18 07:36:09;;;;;;;1.83;1.60;;;;;;;23.28;38.29;94722.47;6163756;28;107112;-77
2022/09/18 07:39:14;;;;;;;2.00;1.80;;;;;;;23.44;38.80;94719.28;6162302;28;103343;-76
2022/09/18 07:42:17;;;;;;;4.00;1.93;;;;;;;23.51;38.37;94708.88;6158914;28;104881;-78
2022/09/18 07:45:20;;;;;;;2.87;2.67;;;;;;;23.53;38.32;94717.38;6161580;28;103743;-76
2022/09/18 07:48:24;;;;;;;2.40;2.20;;;;;;;23.58;38.66;94701.91;6163014;28;103490;-77
2022/09/18 07:51:27;;;;;;;1.77;1.60;;;;;;;23.62;38.95;94704.72;6163315;28;103129;-76
2022/09/18 07:54:32;;;;;;;2.07;1.87;;;;;;;23.62;39.28;94703.94;6156647;28;106419;-76
2022/09/18 07:57:36;;;;;;;1.90;1.80;;;;;;;23.62;39.44;94699.38;6163378;28;106305;-77
2022/09/18 08:00:39;;;;;;;5.80;1.97;;;;;;;23.60;39.60;94704.28;6163777;28;104014;-77
2022/09/18 08:03:42;;;;;;;3.73;2.37;;;;;;;23.54;38.75;94705.56;6162907;28;104433;-76
2022/09/18 08:06:45;;;;;;;2.80;2.37;;;;;;;23.56;39.08;94701.47;6156371;28;103717;-76
2022/09/18 08:09:50;;;;;;;2.90;1.90;;;;;;;23.54;39.08;94702.91;6162071;28;103033;-77
2022/09/18 08:12:54;;;;;;;2.30;2.10;;;;;;;23.50;38.65;94697.41;6162490;28;102872;-76
2022/09/18 08:15:57;;;;;;;3.47;1.80;;;;;;;23.43;38.04;94697.13;6159425;28;103650;-76
2022/09/18 08:19:00;;;;;;;2.27;2.10;;;;;;;23.37;38.11;94697.66;6159167;28;106215;-76
2022/09/18 08:22:05;;;;;;;1.97;1.77;;;;;;;23.46;37.94;94701.03;6162692;28;103516;-76
2022/09/18 08:25:11;;;;;;;2.10;1.90;;;;;;;23.64;37.90;94699.84;6162272;28;103287;-76
2022/09/18 08:28:14;;;;;;;6.93;2.63;;;;;;;23.75;37.86;94698.38;6157157;28;105035;-76
2022/09/18 08:31:17;;;;;;;2.23;2.03;;;;;;;23.79;37.97;94688.59;6163504;28;103420;-76
2022/09/18 08:34:21;;;;;;;2.50;1.90;;;;;;;23.89;37.96;94685.53;6162917;28;103308;-77
2022/09/18 08:37:24;;;;;;;2.63;2.20;;;;;;;23.95;37.73;94683.44;6146429;28;103083;-76
2022/09/18 08:40:54;;;;;;;2.83;2.10;;;;;;;23.87;37.51;94693.09;6130564;28;103367;-77
2022/09/18 08:44:04;;;;;;;2.87;2.57;;;;;;;23.96;37.14;94710.94;6139009;28;103426;-77
2022/09/18 08:47:13;;;;;;;3.00;2.70;;;;;;;23.97;37.14;94717.84;6138919;28;103274;-76
2022/09/18 08:50:23;;;;;;;3.30;3.00;;;;;;;23.98;37.25;94719.44;6143523;28;103553;-76
2022/09/18 08:53:32;;;;;;;5.17;4.77;;;;;;;23.96;36.99;94722.44;6159765;28;105442;-76
2022/09/18 08:56:37;;;;;;;3.70;3.40;;;;;;;24.03;36.38;94722.72;6165367;28;103189;-77
2022/09/18 08:59:45;;;;;;;4.77;4.17;;;;;;;24.16;36.26;94734.25;6166357;28;103633;-76
2022/09/18 09:02:51;;;;;;;4.90;3.67;;;;;;;24.23;36.00;94726.50;6159785;28;103421;-78
2022/09/18 09:05:58;;;;;;;3.73;3.40;;;;;;;24.19;35.61;94722.91;6166302;28;105361;-76
2022/09/18 09:09:16;;;;;;;6.63;3.47;;;;;;;24.12;36.10;94714.63;6166543;28;102927;-77
2022/09/18 09:12:35;;;;;;;2.90;2.70;;;;;;;24.12;36.08;94728.78;6162764;28;103260;-78
2022/09/18 09:15:47;;;;;;;2.47;2.27;;;;;;;24.11;36.02;94732.56;6158587;28;104281;-76
2022/09/18 09:19:00;;;;;;;4.10;2.50;;;;;;;24.14;35.63;94741.81;6165291;28;104059;-76
2022/09/18 09:22:12;;;;;;;2.63;2.00;;;;;;;24.19;35.46;94736.28;6165464;28;103251;-76
2022/09/18 09:25:21;;;;;;;3.30;2.40;;;;;;;24.25;35.80;94748.34;6159343;28;107265;-77
2022/09/18 09:28:33;;;;;;;2.17;2.03;;;;;;;24.30;35.28;94761.53;6166515;28;103310;-77
2022/09/18 09:31:41;;;;;;;2.27;2.07;;;;;;;24.33;35.51;94758.19;6154635;28;105532;-76
2022/09/18 09:34:56;;;;;;;3.23;1.80;;;;;;;24.35;35.41;94757.84;6167085;28;102857;-76
2022/09/18 09:38:18;;;;;;;2.37;2.00;;;;;;;24.35;35.28;94761.31;6161623;28;102959;-80
2022/09/18 09:41:30;;;;;;;6.30;1.90;;;;;;;24.32;35.23;94755.84;6166364;28;103385;-77
2022/09/18 09:44:40;;;;;;;1.90;1.80;;;;;;;24.39;35.08;94764.94;6164154;28;106232;-77
2022/09/18 09:47:47;;;;;;;1.80;1.70;;;;;;;24.38;35.36;94781.31;6151937;28;103574;-77
2022/09/18 09:50:57;;;;;;;1.90;1.80;;;;;;;24.42;34.86;94787.56;6156808;28;103553;-76
2022/09/18 09:54:01;;;;;;;2.17;1.83;;;;;;;24.42;35.06;94788.34;6154858;28;106862;-77
2022/09/18 09:57:15;;;;;;;1.80;1.60;;;;;;;24.45;34.95;94786.91;6165387;28;105324;-78
2022/09/18 10:00:20;;;;;;;1.87;1.60;;;;;;;24.45;34.97;94803.72;6157067;28;103087;-77
2022/09/18 10:03:33;;;;;;;1.60;1.50;;;;;;;24.43;34.89;94792.56;6164934;28;103593;-76
2022/09/18 10:06:44;;;;;;;2.53;1.67;;;;;;;24.45;34.63;94800.28;6140741;28;103346;-76
2022/09/18 10:09:53;;;;;;;2.50;1.80;;;;;;;24.43;35.04;94808.63;6147178;28;105169;-77
2022/09/18 10:13:00;;;;;;;2.60;2.10;;;;;;;24.37;35.06;94791.22;6160561;28;103227;-78
2022/09/18 10:16:13;;;;;;;5.17;4.67;;;;;;;24.32;35.05;94796.75;6163284;28;103037;-77
2022/09/18 10:19:19;;;;;;;11.70;10.60;;;;;;;24.30;35.38;94798.97;6168938;28;104397;-79
2022/09/18 10:22:26;;;;;;;12.40;11.27;;;;;;;24.30;34.86;94804.31;6158320;28;104447;-78
2022/09/18 10:25:35;;;;;;;10.40;9.50;;;;;;;24.31;35.11;94808.56;6165090;28;104106;-77
2022/09/18 10:28:39;;;;;;;10.37;9.13;;;;;;;24.29;34.99;94802.75;6164002;28;103597;-76
2022/09/18 10:31:51;;;;;;;8.73;7.93;;;;;;;24.29;35.36;94805.41;6164203;28;103280;-76
2022/09/18 10:34:54;;;;;;;8.47;7.63;;;;;;;24.28;34.94;94803.84;6157671;28;103012;-77
2022/09/18 10:37:58;;;;;;;8.13;7.33;;;;;;;24.27;34.82;94815.66;6165573;28;106169;-78
2022/09/18 10:41:30;;;;;;;7.70;6.70;;;;;;;24.28;35.31;94811.09;6164495;28;103518;-77
2022/09/18 10:44:35;;;;;;;7.00;5.73;;;;;;;24.27;35.55;94825.56;6145670;28;104755;-77
2022/09/18 10:47:40;;;;;;;6.17;5.57;;;;;;;24.25;35.49;94817.88;6159821;28;106301;-77
2022/09/18 10:50:52;;;;;;;5.57;5.13;;;;;;;24.20;35.85;94799.38;6164507;28;107395;-78
2022/09/18 10:54:05;;;;;;;5.70;5.20;;;;;;;24.18;36.14;94804.22;6163444;28;103055;-78
2022/09/18 10:57:26;;;;;;;4.80;4.47;;;;;;;24.18;35.74;94812.25;6157254;28;103139;-78
2022/09/18 11:00:38;;;;;;;4.80;4.40;;;;;;;24.19;36.44;94816.50;6163715;28;103386;-81
2022/09/18 11:03:48;;;;;;;7.57;4.47;;;;;;;24.08;35.32;94834.03;6159396;28;103357;-76
2022/09/18 11:06:51;;;;;;;5.10;4.70;;;;;;;23.86;34.27;94854.56;6162870;28;103103;-77
2022/09/18 11:09:55;;;;;;;9.73;8.93;;;;;;;23.64;33.26;94836.09;6176342;28;104341;-77
2022/09/18 11:13:02;;;;;;;41.20;37.37;;;;;;;23.58;33.09;94848.84;6157609;28;103633;-77
2022/09/18 11:16:06;;;;;;;26.07;24.07;;;;;;;23.53;33.03;94813.53;6164026;28;103174;-76
2022/09/18 11:19:23;;;;;;;19.30;17.70;;;;;;;23.75;33.93;94839.97;6158653;28;103732;-77
2022/09/18 11:22:37;;;;;;;14.43;13.33;;;;;;;23.85;34.04;94831.56;6161577;28;103372;-77
2022/09/18 11:25:41;;;;;;;13.67;12.33;;;;;;;23.89;34.16;94827.19;6163432;28;103446;-77
2022/09/18 11:28:58;;;;;;;11.03;10.23;;;;;;;23.80;34.09;94837.13;6148478;28;103724;-78
2022/09/18 11:32:12;;;;;;;11.43;10.57;;;;;;;23.75;34.63;94826.63;6156724;28;105634;-76
2022/09/18 11:35:20;;;;;;;9.33;8.63;;;;;;;23.76;34.77;94840.75;6164411;28;103311;-77
2022/09/18 11:38:23;;;;;;;9.20;8.33;;;;;;;23.74;34.87;94830.41;6164441;28;103473;-77
2022/09/18 11:41:31;;;;;;;7.70;7.07;;;;;;;23.73;34.38;94831.50;6155384;28;105094;-76
2022/09/18 11:44:35;;;;;;;9.37;8.47;;;;;;;23.76;35.44;94830.06;6155367;28;103030;-78
2022/09/18 11:47:45;;;;;;;9.10;8.30;;;;;;;23.86;35.06;94832.41;6164103;28;103698;-78
2022/09/18 11:50:53;;;;;;;10.13;6.87;;;;;;;23.85;35.98;94844.94;6160957;28;103487;-76
2022/09/18 11:54:03;;;;;;;6.43;5.97;;;;;;;23.83;35.21;94851.72;6159188;28;103332;-78
2022/09/18 11:57:17;;;;;;;6.50;5.90;;;;;;;23.80;35.54;94849.69;6162861;28;103489;-78
2022/09/18 12:00:22;;;;;;;6.10;5.10;;;;;;;23.77;35.42;94837.75;6163877;28;107982;-77
2022/09/18 12:03:30;;;;;;;8.60;5.30;;;;;;;23.78;35.16;94854.56;6158650;28;104494;-77
2022/09/18 12:06:41;;;;;;;6.70;6.10;;;;;;;23.82;35.10;94842.13;6150023;28;103314;-77
2022/09/18 12:09:54;;;;;;;5.93;5.40;;;;;;;23.83;35.12;94852.50;6153824;28;103803;-76
2022/09/18 12:13:18;;;;;;;5.63;4.60;;;;;;;23.88;35.66;94863.03;6154429;28;103161;-76
2022/09/18 12:16:29;;;;;;;5.90;5.40;;;;;;;23.93;35.89;94847.91;6150612;28;103569;-75
2022/09/18 12:19:38;;;;;;;5.73;5.20;;;;;;;23.95;35.56;94853.72;6159401;28;103496;-78
2022/09/18 12:22:48;;;;;;;5.17;4.67;;;;;;;23.95;35.53;94859.06;6162467;28;103290;-78
2022/09/18 12:26:05;;;;;;;5.17;4.17;;;;;;;23.97;34.78;94860.31;6173431;28;102675;-79
2022/09/18 12:29:34;;;;;;;4.37;4.07;;;;;;;23.97;35.32;94871.00;6169130;28;105005;-79
2022/09/18 12:33:18;;;;;;;3.97;3.60;;;;;;;23.99;34.98;94876.81;6173786;28;103253;-81
2022/09/18 12:36:57;;;;;;;3.57;3.27;;;;;;;24.00;35.11;94869.59;6173225;28;103468;-81
2022/09/18 12:40:23;;;;;;;3.90;3.60;;;;;;;24.00;34.61;94881.06;6153993;28;103902;-77
2022/09/18 12:43:48;;;;;;;3.67;3.40;;;;;;;23.99;35.25;94900.84;6167515;28;104817;-76
2022/09/18 12:47:07;;;;;;;7.00;3.27;;;;;;;23.96;35.05;94882.00;6178620;28;103584;-77
2022/09/18 12:50:31;;;;;;;3.40;3.10;;;;;;;23.95;35.39;94878.56;6177232;28;103133;-78
2022/09/18 12:53:49;;;;;;;3.20;2.90;;;;;;;23.95;35.51;94891.13;6151022;28;103654;-78
2022/09/18 12:57:12;;;;;;;4.07;2.90;;;;;;;23.94;35.54;94886.91;6153610;28;103586;-78
2022/09/18 13:00:18;;;;;;;2.80;2.60;;;;;;;23.92;35.46;94873.06;6176890;28;107217;-78
2022/09/18 13:03:25;;;;;;;2.97;2.77;;;;;;;23.91;34.99;94874.97;6172897;28;104391;-78
2022/09/18 13:06:37;;;;;;;2.90;2.60;;;;;;;23.90;35.23;94870.72;6160484;28;105591;-79
2022/09/18 13:09:48;;;;;;;2.60;2.40;;;;;;;23.91;34.88;94874.97;6176831;28;103319;-77
2022/09/18 13:13:00;;;;;;;2.70;2.50;;;;;;;23.92;34.71;94873.06;6177964;28;103154;-78
2022/09/18 13:16:10;;;;;;;2.73;2.53;;;;;;;23.90;34.70;94871.50;6174523;28;104876;-77
2022/09/18 13:19:18;;;;;;;3.23;2.60;;;;;;;23.89;34.77;94869.94;6177340;28;102865;-79
2022/09/18 13:22:25;;;;;;;2.40;2.30;;;;;;;23.93;34.31;94885.34;6176675;28;103251;-79
2022/09/18 13:25:34;;;;;;;2.73;2.43;;;;;;;23.91;34.21;94874.97;6171437;28;103108;-79
2022/09/18 13:28:40;;;;;;;2.67;2.47;;;;;;;23.90;34.15;94882.19;6176115;28;103071;-78
2022/09/18 13:31:44;;;;;;;2.57;2.37;;;;;;;23.89;34.65;94880.63;6176417;28;102643;-78
2022/09/18 13:34:51;;;;;;;2.57;2.37;;;;;;;23.89;34.70;94883.31;6176184;28;105642;-77
2022/09/18 13:38:14;;;;;;;2.77;2.53;;;;;;;23.90;34.60;94890.22;6170543;28;105930;-77
2022/09/18 13:41:18;;;;;;;4.40;2.23;;;;;;;23.85;33.08;94885.03;6157113;28;103302;-76
2022/09/18 13:44:26;;;;;;;3.50;3.20;;;;;;;23.81;33.35;94886.78;6151122;28;103456;-77
2022/09/18 13:47:30;;;;;;;6.73;6.13;;;;;;;23.87;33.01;94885.53;6147892;28;104111;-76
2022/09/18 13:50:35;;;;;;;4.97;4.57;;;;;;;23.89;32.64;94899.34;6148981;28;103368;-77
2022/09/18 13:53:41;;;;;;;7.60;7.10;;;;;;;23.88;32.87;94897.78;6150253;28;104326;-77
2022/09/18 13:57:16;;;;;;;5.70;5.20;;;;;;;23.85;33.20;94898.38;6171072;28;102960;-76
2022/09/18 14:00:41;;;;;;;7.47;6.77;;;;;;;23.84;33.39;94909.41;6169143;28;103181;-78
2022/09/18 14:03:44;;;;;;;7.20;6.60;;;;;;;23.82;33.02;94914.28;6175274;28;103367;-77
2022/09/18 14:06:48;;;;;;;6.80;6.30;;;;;;;23.85;32.94;94917.09;6174781;28;105555;-77
2022/09/18 14:09:53;;;;;;;5.60;5.20;;;;;;;23.83;32.91;94908.63;6172632;28;102770;-77
2022/09/18 14:13:24;;;;;;;7.33;5.70;;;;;;;23.85;32.63;94919.00;6171574;28;103199;-77
2022/09/18 14:16:39;;;;;;;5.63;4.10;;;;;;;23.87;32.54;94914.91;6172985;28;103318;-76
2022/09/18 14:19:48;;;;;;;4.60;4.30;;;;;;;23.90;33.42;94916.16;6174437;28;103733;-77
2022/09/18 14:22:52;;;;;;;4.30;4.00;;;;;;;23.89;33.34;94922.63;6170381;28;102809;-78
2022/09/18 14:25:56;;;;;;;4.83;4.43;;;;;;;23.87;33.55;94917.59;6174048;28;104971;-77
2022/09/18 14:29:04;;;;;;;4.60;4.20;;;;;;;23.85;34.35;94911.75;6173572;28;104176;-76
2022/09/18 14:32:19;;;;;;;4.30;3.90;;;;;;;23.80;34.05;94906.59;6173408;28;102452;-76